sensor_id;sensor_type;location;lat;lon;timestamp;pressure;altitude;pressure_sealevel;temperature;humidity
76201;BME280;64981;52.930;9.266;2023-12-14T00:01:21;100567.63;;;4.85;76.33
76201;BME280;64981;52.930;9.266;2023-12-14T00:03:47;100567.09;;;4.91;75.14
76201;BME280;64981;52.930;9.266;2023-12-14T00:06:13;100588.00;;;5.12;74.17
76201;BME280;64981;52.930;9.266;2023-12-14T00:08:39;100586.47;;;4.79;75.80
76201;BME280;64981;52.930;9.266;2023-12-14T00:11:08;100593.94;;;4.63;76.29
76201;BME280;64981;52.930;9.266;2023-12-14T00:13:34;100597.69;;;4.91;75.65
76201;BME280;64981;52.930;9.266;2023-12-14T00:16:00;100600.34;;;5.01;74.81
76201;BME280;64981;52.930;9.266;2023-12-14T00:18:26;100607.06;;;4.93;74.90
76201;BME280;64981;52.930;9.266;2023-12-14T00:20:53;100602.69;;;4.73;75.34
76201;BME280;64981;52.930;9.266;2023-12-14T00:23:20;100616.63;;;4.83;75.75
76201;BME280;64981;52.930;9.266;2023-12-14T00:25:46;100622.19;;;4.90;75.52
76201;BME280;64981;52.930;9.266;2023-12-14T00:28:12;100631.81;;;4.89;75.70
76201;BME280;64981;52.930;9.266;2023-12-14T00:30:37;100633.59;;;5.10;75.18
76201;BME280;64981;52.930;9.266;2023-12-14T00:33:03;100640.31;;;5.03;75.15
76201;BME280;64981;52.930;9.266;2023-12-14T00:35:28;100639.63;;;5.01;75.62
76201;BME280;64981;52.930;9.266;2023-12-14T00:37:54;100618.06;;;4.67;75.95
76201;BME280;64981;52.930;9.266;2023-12-14T00:40:20;100653.47;;;4.91;75.84
76201;BME280;64981;52.930;9.266;2023-12-14T00:42:45;100627.50;;;4.79;75.33
76201;BME280;64981;52.930;9.266;2023-12-14T00:45:11;100660.47;;;4.70;75.78
76201;BME280;64981;52.930;9.266;2023-12-14T00:47:36;100664.06;;;4.90;75.17
76201;BME280;64981;52.930;9.266;2023-12-14T00:50:02;100664.69;;;5.03;74.99
76201;BME280;64981;52.930;9.266;2023-12-14T00:52:28;100676.25;;;5.01;74.81
76201;BME280;64981;52.930;9.266;2023-12-14T00:54:53;100674.59;;;5.00;74.34
76201;BME280;64981;52.930;9.266;2023-12-14T00:57:19;100684.63;;;4.94;74.87
76201;BME280;64981;52.930;9.266;2023-12-14T00:59:45;100685.63;;;5.03;74.33
76201;BME280;64981;52.930;9.266;2023-12-14T01:02:11;100681.66;;;5.09;73.93
76201;BME280;64981;52.930;9.266;2023-12-14T01:04:37;100682.75;;;5.06;74.56
76201;BME280;64981;52.930;9.266;2023-12-14T01:07:03;100672.63;;;4.92;74.76
76201;BME280;64981;52.930;9.266;2023-12-14T01:09:29;100685.75;;;5.02;74.35
76201;BME280;64981;52.930;9.266;2023-12-14T01:11:55;100690.81;;;4.93;74.97
76201;BME280;64981;52.930;9.266;2023-12-14T01:14:20;100696.72;;;4.95;74.93
76201;BME280;64981;52.930;9.266;2023-12-14T01:16:46;100700.41;;;5.04;74.48
76201;BME280;64981;52.930;9.266;2023-12-14T01:19:12;100699.38;;;5.16;74.33
76201;BME280;64981;52.930;9.266;2023-12-14T01:21:37;100705.81;;;5.12;74.79
76201;BME280;64981;52.930;9.266;2023-12-14T01:24:03;100710.84;;;4.83;75.05
76201;BME280;64981;52.930;9.266;2023-12-14T01:26:29;100709.63;;;5.08;74.60
76201;BME280;64981;52.930;9.266;2023-12-14T01:28:54;100712.00;;;5.11;74.18
76201;BME280;64981;52.930;9.266;2023-12-14T01:31:20;100724.13;;;5.12;74.71
76201;BME280;64981;52.930;9.266;2023-12-14T01:33:49;100732.16;;;5.00;74.14
76201;BME280;64981;52.930;9.266;2023-12-14T01:36:23;100734.03;;;4.88;75.25
76201;BME280;64981;52.930;9.266;2023-12-14T01:38:49;100745.34;;;5.09;73.97
76201;BME280;64981;52.930;9.266;2023-12-14T01:41:15;100741.41;;;4.83;74.77
76201;BME280;64981;52.930;9.266;2023-12-14T01:43:41;100748.06;;;4.87;74.80
76201;BME280;64981;52.930;9.266;2023-12-14T01:46:07;100745.31;;;4.88;74.65
76201;BME280;64981;52.930;9.266;2023-12-14T01:48:32;100743.66;;;5.08;73.74
76201;BME280;64981;52.930;9.266;2023-12-14T01:50:58;100710.25;;;4.80;74.16
76201;BME280;64981;52.930;9.266;2023-12-14T01:53:23;100753.44;;;4.85;74.43
76201;BME280;64981;52.930;9.266;2023-12-14T01:55:49;100751.50;;;4.87;74.42
76201;BME280;64981;52.930;9.266;2023-12-14T01:58:14;100756.13;;;4.95;74.01
76201;BME280;64981;52.930;9.266;2023-12-14T02:00:50;100764.66;;;4.97;74.09
76201;BME280;64981;52.930;9.266;2023-12-14T02:03:18;100756.63;;;4.89;74.17
76201;BME280;64981;52.930;9.266;2023-12-14T02:05:43;100768.88;;;4.88;74.72
76201;BME280;64981;52.930;9.266;2023-12-14T02:08:09;100769.00;;;4.87;74.71
76201;BME280;64981;52.930;9.266;2023-12-14T02:10:35;100760.47;;;4.74;74.97
76201;BME280;64981;52.930;9.266;2023-12-14T02:13:03;100738.50;;;4.65;74.90
76201;BME280;64981;52.930;9.266;2023-12-14T02:15:29;100772.97;;;4.70;75.82
76201;BME280;64981;52.930;9.266;2023-12-14T02:17:55;100769.81;;;4.87;75.10
76201;BME280;64981;52.930;9.266;2023-12-14T02:20:21;100771.00;;;5.15;73.91
76201;BME280;64981;52.930;9.266;2023-12-14T02:22:50;100747.44;;;4.94;73.50
76201;BME280;64981;52.930;9.266;2023-12-14T02:25:17;100777.41;;;4.90;74.20
76201;BME280;64981;52.930;9.266;2023-12-14T02:27:42;100775.84;;;4.99;73.92
76201;BME280;64981;52.930;9.266;2023-12-14T02:30:09;100777.94;;;5.05;73.64
76201;BME280;64981;52.930;9.266;2023-12-14T02:32:34;100777.16;;;5.05;73.91
76201;BME280;64981;52.930;9.266;2023-12-14T02:35:00;100774.28;;;5.08;73.82
76201;BME280;64981;52.930;9.266;2023-12-14T02:37:26;100784.25;;;5.14;73.42
76201;BME280;64981;52.930;9.266;2023-12-14T02:39:51;100777.44;;;5.11;73.41
76201;BME280;64981;52.930;9.266;2023-12-14T02:42:17;100774.81;;;5.11;73.20
76201;BME280;64981;52.930;9.266;2023-12-14T02:44:42;100767.97;;;4.99;73.92
76201;BME280;64981;52.930;9.266;2023-12-14T02:47:08;100767.56;;;5.15;73.18
76201;BME280;64981;52.930;9.266;2023-12-14T02:49:33;100776.91;;;5.08;73.86
76201;BME280;64981;52.930;9.266;2023-12-14T02:51:59;100780.53;;;4.84;74.10
76201;BME280;64981;52.930;9.266;2023-12-14T02:54:25;100766.00;;;4.91;73.82
76201;BME280;64981;52.930;9.266;2023-12-14T02:56:50;100786.44;;;4.97;74.33
76201;BME280;64981;52.930;9.266;2023-12-14T02:59:16;100802.09;;;5.09;74.06
76201;BME280;64981;52.930;9.266;2023-12-14T03:01:41;100804.19;;;4.94;74.66
76201;BME280;64981;52.930;9.266;2023-12-14T03:04:07;100805.63;;;4.87;74.78
76201;BME280;64981;52.930;9.266;2023-12-14T03:06:33;100812.88;;;4.94;74.50
76201;BME280;64981;52.930;9.266;2023-12-14T03:08:59;100815.00;;;5.01;74.48
76201;BME280;64981;52.930;9.266;2023-12-14T03:11:25;100826.66;;;4.96;74.75
76201;BME280;64981;52.930;9.266;2023-12-14T03:13:51;100835.78;;;5.02;74.74
76201;BME280;64981;52.930;9.266;2023-12-14T03:16:18;100826.94;;;5.14;73.70
76201;BME280;64981;52.930;9.266;2023-12-14T03:18:43;100836.69;;;5.23;74.05
76201;BME280;64981;52.930;9.266;2023-12-14T03:21:09;100841.69;;;5.15;74.02
76201;BME280;64981;52.930;9.266;2023-12-14T03:23:35;100839.06;;;5.15;73.87
76201;BME280;64981;52.930;9.266;2023-12-14T03:26:01;100811.66;;;4.98;73.81
76201;BME280;64981;52.930;9.266;2023-12-14T03:28:27;100843.22;;;5.18;73.95
76201;BME280;64981;52.930;9.266;2023-12-14T03:30:53;100852.66;;;5.20;73.91
76201;BME280;64981;52.930;9.266;2023-12-14T03:33:19;100847.78;;;5.16;73.84
76201;BME280;64981;52.930;9.266;2023-12-14T03:35:45;100862.78;;;5.14;74.47
76201;BME280;64981;52.930;9.266;2023-12-14T03:38:13;100843.03;;;5.10;73.87
76201;BME280;64981;52.930;9.266;2023-12-14T03:40:39;100849.94;;;5.11;73.87
76201;BME280;64981;52.930;9.266;2023-12-14T03:43:04;100865.66;;;5.11;74.17
76201;BME280;64981;52.930;9.266;2023-12-14T03:45:30;100862.38;;;5.29;73.36
76201;BME280;64981;52.930;9.266;2023-12-14T03:47:56;100855.13;;;5.22;73.52
76201;BME280;64981;52.930;9.266;2023-12-14T03:50:22;100870.50;;;5.15;73.90
76201;BME280;64981;52.930;9.266;2023-12-14T03:52:48;100858.50;;;5.13;73.89
76201;BME280;64981;52.930;9.266;2023-12-14T03:55:13;100873.69;;;5.19;74.05
76201;BME280;64981;52.930;9.266;2023-12-14T03:57:41;100876.25;;;5.30;73.60
76201;BME280;64981;52.930;9.266;2023-12-14T04:00:12;100880.28;;;5.13;73.86
76201;BME280;64981;52.930;9.266;2023-12-14T04:02:39;100887.28;;;5.13;73.63
76201;BME280;64981;52.930;9.266;2023-12-14T04:05:07;100889.91;;;5.13;73.61
76201;BME280;64981;52.930;9.266;2023-12-14T04:07:36;100882.81;;;5.35;72.94
76201;BME280;64981;52.930;9.266;2023-12-14T04:10:02;100875.81;;;5.25;72.78
76201;BME280;64981;52.930;9.266;2023-12-14T04:12:28;100890.50;;;5.16;73.23
76201;BME280;64981;52.930;9.266;2023-12-14T04:14:53;100860.22;;;4.91;73.83
76201;BME280;64981;52.930;9.266;2023-12-14T04:17:19;100899.34;;;5.04;74.16
76201;BME280;64981;52.930;9.266;2023-12-14T04:19:44;100899.09;;;5.07;74.16
76201;BME280;64981;52.930;9.266;2023-12-14T04:22:10;100924.06;;;5.11;73.47
76201;BME280;64981;52.930;9.266;2023-12-14T04:24:35;100913.09;;;5.17;73.41
76201;BME280;64981;52.930;9.266;2023-12-14T04:27:01;100918.41;;;5.27;73.04
76201;BME280;64981;52.930;9.266;2023-12-14T04:29:26;100926.91;;;5.08;73.43
76201;BME280;64981;52.930;9.266;2023-12-14T04:31:52;100912.69;;;5.01;72.77
76201;BME280;64981;52.930;9.266;2023-12-14T04:34:19;100933.47;;;5.14;72.67
76201;BME280;64981;52.930;9.266;2023-12-14T04:36:45;100919.44;;;5.04;72.94
76201;BME280;64981;52.930;9.266;2023-12-14T04:39:11;100928.63;;;4.98;73.39
76201;BME280;64981;52.930;9.266;2023-12-14T04:41:37;100921.22;;;5.03;73.07
76201;BME280;64981;52.930;9.266;2023-12-14T04:44:03;100930.38;;;5.09;73.09
76201;BME280;64981;52.930;9.266;2023-12-14T04:46:29;100941.81;;;4.96;73.18
76201;BME280;64981;52.930;9.266;2023-12-14T04:48:55;100926.13;;;4.96;72.49
76201;BME280;64981;52.930;9.266;2023-12-14T04:51:21;100962.66;;;4.54;73.57
76201;BME280;64981;52.930;9.266;2023-12-14T04:53:47;100956.34;;;4.89;73.32
76201;BME280;64981;52.930;9.266;2023-12-14T04:56:13;100957.91;;;4.92;73.08
76201;BME280;64981;52.930;9.266;2023-12-14T04:58:39;100965.72;;;5.03;73.25
76201;BME280;64981;52.930;9.266;2023-12-14T05:01:05;100957.28;;;5.00;73.12
76201;BME280;64981;52.930;9.266;2023-12-14T05:03:31;100966.81;;;4.89;73.25
76201;BME280;64981;52.930;9.266;2023-12-14T05:05:57;100985.25;;;4.99;72.85
76201;BME280;64981;52.930;9.266;2023-12-14T05:08:22;100988.22;;;4.94;72.64
76201;BME280;64981;52.930;9.266;2023-12-14T05:10:49;100973.13;;;4.87;72.54
76201;BME280;64981;52.930;9.266;2023-12-14T05:13:14;101005.25;;;5.00;72.53
76201;BME280;64981;52.930;9.266;2023-12-14T05:15:40;101011.91;;;5.04;72.14
76201;BME280;64981;52.930;9.266;2023-12-14T05:18:07;100984.53;;;4.86;72.46
76201;BME280;64981;52.930;9.266;2023-12-14T05:20:33;101005.34;;;4.98;72.67
76201;BME280;64981;52.930;9.266;2023-12-14T05:22:59;101001.31;;;4.94;72.74
76201;BME280;64981;52.930;9.266;2023-12-14T05:25:24;100924.13;;;4.45;73.72
76201;BME280;64981;52.930;9.266;2023-12-14T05:27:50;101008.66;;;4.67;73.65
76201;BME280;64981;52.930;9.266;2023-12-14T05:30:16;101020.34;;;4.74;73.62
76201;BME280;64981;52.930;9.266;2023-12-14T05:32:41;101027.47;;;5.06;72.89
76201;BME280;64981;52.930;9.266;2023-12-14T05:35:07;101029.03;;;4.75;73.38
76201;BME280;64981;52.930;9.266;2023-12-14T05:37:33;101024.72;;;4.74;73.75
76201;BME280;64981;52.930;9.266;2023-12-14T05:39:58;101025.34;;;4.77;73.11
76201;BME280;64981;52.930;9.266;2023-12-14T05:42:24;101032.00;;;5.04;72.22
76201;BME280;64981;52.930;9.266;2023-12-14T05:44:50;101032.00;;;5.15;71.94
76201;BME280;64981;52.930;9.266;2023-12-14T05:47:15;101042.59;;;5.02;71.98
76201;BME280;64981;52.930;9.266;2023-12-14T05:49:42;101048.06;;;4.99;72.56
76201;BME280;64981;52.930;9.266;2023-12-14T05:52:08;101053.78;;;5.04;72.14
76201;BME280;64981;52.930;9.266;2023-12-14T05:54:36;101055.47;;;5.16;72.14
76201;BME280;64981;52.930;9.266;2023-12-14T05:57:02;101047.47;;;4.95;72.67
76201;BME280;64981;52.930;9.266;2023-12-14T05:59:28;101041.53;;;4.93;72.29
76201;BME280;64981;52.930;9.266;2023-12-14T06:01:58;101046.53;;;4.96;72.19
76201;BME280;64981;52.930;9.266;2023-12-14T06:04:25;101067.94;;;4.79;73.56
76201;BME280;64981;52.930;9.266;2023-12-14T06:06:51;101061.16;;;4.88;73.29
76201;BME280;64981;52.930;9.266;2023-12-14T06:09:16;101074.38;;;5.31;72.23
76201;BME280;64981;52.930;9.266;2023-12-14T06:11:44;101079.03;;;5.16;72.42
76201;BME280;64981;52.930;9.266;2023-12-14T06:14:10;101078.06;;;5.28;71.84
76201;BME280;64981;52.930;9.266;2023-12-14T06:16:35;101006.06;;;4.78;72.38
76201;BME280;64981;52.930;9.266;2023-12-14T06:19:01;101090.44;;;5.15;72.34
76201;BME280;64981;52.930;9.266;2023-12-14T06:21:27;101091.50;;;5.24;71.87
76201;BME280;64981;52.930;9.266;2023-12-14T06:23:55;101083.91;;;5.10;72.04
76201;BME280;64981;52.930;9.266;2023-12-14T06:26:22;101091.50;;;5.13;72.06
76201;BME280;64981;52.930;9.266;2023-12-14T06:28:48;101090.78;;;5.22;71.66
76201;BME280;64981;52.930;9.266;2023-12-14T06:31:14;101091.41;;;5.25;71.78
76201;BME280;64981;52.930;9.266;2023-12-14T06:33:41;101101.75;;;5.05;72.06
76201;BME280;64981;52.930;9.266;2023-12-14T06:36:08;101106.50;;;5.00;72.92
76201;BME280;64981;52.930;9.266;2023-12-14T06:38:33;101101.50;;;4.96;72.71
76201;BME280;64981;52.930;9.266;2023-12-14T06:41:00;101111.75;;;5.22;72.29
76201;BME280;64981;52.930;9.266;2023-12-14T06:43:27;101116.25;;;5.31;71.83
76201;BME280;64981;52.930;9.266;2023-12-14T06:45:53;101121.28;;;5.23;72.47
76201;BME280;64981;52.930;9.266;2023-12-14T06:48:19;101110.06;;;5.10;72.73
76201;BME280;64981;52.930;9.266;2023-12-14T06:50:45;101138.88;;;5.43;71.41
76201;BME280;64981;52.930;9.266;2023-12-14T06:53:10;101134.13;;;5.37;72.04
76201;BME280;64981;52.930;9.266;2023-12-14T06:55:36;101137.00;;;5.23;72.41
76201;BME280;64981;52.930;9.266;2023-12-14T06:58:02;101142.44;;;5.09;73.07
76201;BME280;64981;52.930;9.266;2023-12-14T07:00:27;101129.72;;;5.15;72.82
76201;BME280;64981;52.930;9.266;2023-12-14T07:02:55;101113.66;;;5.20;71.82
76201;BME280;64981;52.930;9.266;2023-12-14T07:05:20;101133.78;;;5.41;71.62
76201;BME280;64981;52.930;9.266;2023-12-14T07:07:46;101157.34;;;5.64;71.08
76201;BME280;64981;52.930;9.266;2023-12-14T07:10:11;101158.44;;;5.39;72.32
76201;BME280;64981;52.930;9.266;2023-12-14T07:12:37;101167.84;;;5.41;72.48
76201;BME280;64981;52.930;9.266;2023-12-14T07:15:03;101164.25;;;5.31;72.65
76201;BME280;64981;52.930;9.266;2023-12-14T07:17:28;101167.56;;;5.33;72.95
76201;BME280;64981;52.930;9.266;2023-12-14T07:19:54;101169.84;;;5.38;73.67
76201;BME280;64981;52.930;9.266;2023-12-14T07:22:19;101180.09;;;5.41;73.79
76201;BME280;64981;52.930;9.266;2023-12-14T07:24:45;101184.25;;;5.43;73.77
76201;BME280;64981;52.930;9.266;2023-12-14T07:27:11;101186.88;;;5.43;73.77
76201;BME280;64981;52.930;9.266;2023-12-14T07:29:36;101164.13;;;5.33;73.56
76201;BME280;64981;52.930;9.266;2023-12-14T07:32:02;101196.19;;;5.47;73.62
76201;BME280;64981;52.930;9.266;2023-12-14T07:34:27;101199.97;;;5.43;73.77
76201;BME280;64981;52.930;9.266;2023-12-14T07:36:54;101202.97;;;5.50;74.32
76201;BME280;64981;52.930;9.266;2023-12-14T07:39:19;101211.53;;;5.52;73.36
76201;BME280;64981;52.930;9.266;2023-12-14T07:41:45;101217.84;;;5.49;73.11
76201;BME280;64981;52.930;9.266;2023-12-14T07:44:11;101223.44;;;5.56;73.11
76201;BME280;64981;52.930;9.266;2023-12-14T07:46:37;101219.28;;;5.54;73.67
76201;BME280;64981;52.930;9.266;2023-12-14T07:49:07;101203.91;;;5.49;73.37
76201;BME280;64981;52.930;9.266;2023-12-14T07:51:33;101219.38;;;5.52;73.90
76201;BME280;64981;52.930;9.266;2023-12-14T07:53:58;101239.88;;;5.58;73.36
76201;BME280;64981;52.930;9.266;2023-12-14T07:56:24;101245.47;;;5.54;73.42
76201;BME280;64981;52.930;9.266;2023-12-14T07:58:53;101248.22;;;5.52;73.75
76201;BME280;64981;52.930;9.266;2023-12-14T08:01:19;101254.41;;;5.51;73.90
76201;BME280;64981;52.930;9.266;2023-12-14T08:03:46;101238.31;;;5.44;74.25
76201;BME280;64981;52.930;9.266;2023-12-14T08:06:12;101264.41;;;5.46;73.98
76201;BME280;64981;52.930;9.266;2023-12-14T08:08:37;101247.25;;;5.42;74.51
76201;BME280;64981;52.930;9.266;2023-12-14T08:11:04;101271.69;;;5.54;73.65
76201;BME280;64981;52.930;9.266;2023-12-14T08:13:30;101241.75;;;5.34;73.66
76201;BME280;64981;52.930;9.266;2023-12-14T08:15:55;101292.31;;;5.69;73.48
76201;BME280;64981;52.930;9.266;2023-12-14T08:18:21;101292.41;;;5.68;73.53
76201;BME280;64981;52.930;9.266;2023-12-14T08:20:47;101302.56;;;5.72;73.38
76201;BME280;64981;52.930;9.266;2023-12-14T08:23:12;101303.16;;;5.76;73.10
76201;BME280;64981;52.930;9.266;2023-12-14T08:25:38;101306.13;;;5.71;73.46
76201;BME280;64981;52.930;9.266;2023-12-14T08:28:04;101306.03;;;5.73;73.48
76201;BME280;64981;52.930;9.266;2023-12-14T08:30:30;101316.97;;;5.67;73.39
76201;BME280;64981;52.930;9.266;2023-12-14T08:32:55;101314.13;;;5.70;73.55
76201;BME280;64981;52.930;9.266;2023-12-14T08:35:21;101317.47;;;5.83;73.06
76201;BME280;64981;52.930;9.266;2023-12-14T08:37:47;101316.88;;;5.79;73.16
76201;BME280;64981;52.930;9.266;2023-12-14T08:40:12;101313.41;;;5.79;72.93
76201;BME280;64981;52.930;9.266;2023-12-14T08:42:38;101319.63;;;5.89;72.73
76201;BME280;64981;52.930;9.266;2023-12-14T08:45:04;101320.00;;;5.95;72.80
76201;BME280;64981;52.930;9.266;2023-12-14T08:47:30;101306.25;;;5.81;72.89
76201;BME280;64981;52.930;9.266;2023-12-14T08:49:55;101314.50;;;5.98;72.92
76201;BME280;64981;52.930;9.266;2023-12-14T08:52:21;101326.78;;;5.98;72.89
76201;BME280;64981;52.930;9.266;2023-12-14T08:54:46;101321.06;;;6.04;73.02
76201;BME280;64981;52.930;9.266;2023-12-14T08:57:12;101325.69;;;5.89;73.29
76201;BME280;64981;52.930;9.266;2023-12-14T08:59:37;101322.81;;;5.92;73.03
76201;BME280;64981;52.930;9.266;2023-12-14T09:02:04;101330.56;;;6.05;72.86
76201;BME280;64981;52.930;9.266;2023-12-14T09:04:30;101325.78;;;5.77;73.54
76201;BME280;64981;52.930;9.266;2023-12-14T09:06:55;101346.78;;;5.99;73.37
76201;BME280;64981;52.930;9.266;2023-12-14T09:09:21;101350.84;;;5.92;73.54
76201;BME280;64981;52.930;9.266;2023-12-14T09:11:46;101355.63;;;5.98;73.21
76201;BME280;64981;52.930;9.266;2023-12-14T09:14:12;101338.34;;;5.95;73.24
76201;BME280;64981;52.930;9.266;2023-12-14T09:16:38;101355.75;;;6.08;72.98
76201;BME280;64981;52.930;9.266;2023-12-14T09:19:03;101364.44;;;6.08;72.96
76201;BME280;64981;52.930;9.266;2023-12-14T09:21:29;101354.06;;;6.07;73.60
76201;BME280;64981;52.930;9.266;2023-12-14T09:23:55;101372.44;;;6.07;73.37
76201;BME280;64981;52.930;9.266;2023-12-14T09:26:21;101355.97;;;5.93;73.01
76201;BME280;64981;52.930;9.266;2023-12-14T09:28:46;101377.44;;;5.98;73.37
76201;BME280;64981;52.930;9.266;2023-12-14T09:31:12;101374.94;;;6.08;72.92
76201;BME280;64981;52.930;9.266;2023-12-14T09:33:38;101380.63;;;6.02;73.49
76201;BME280;64981;52.930;9.266;2023-12-14T09:36:04;101370.75;;;6.05;73.59
76201;BME280;64981;52.930;9.266;2023-12-14T09:38:29;101375.44;;;6.13;73.36
76201;BME280;64981;52.930;9.266;2023-12-14T09:40:55;101376.13;;;6.15;73.05
76201;BME280;64981;52.930;9.266;2023-12-14T09:43:21;101385.31;;;6.21;73.08
76201;BME280;64981;52.930;9.266;2023-12-14T09:45:49;101387.00;;;6.22;73.15
76201;BME280;64981;52.930;9.266;2023-12-14T09:48:16;101367.44;;;6.03;73.19
76201;BME280;64981;52.930;9.266;2023-12-14T09:50:42;101388.91;;;6.31;72.37
76201;BME280;64981;52.930;9.266;2023-12-14T09:53:08;101384.97;;;6.25;72.55
76201;BME280;64981;52.930;9.266;2023-12-14T09:55:35;101401.91;;;6.32;72.75
76201;BME280;64981;52.930;9.266;2023-12-14T09:58:00;101411.69;;;6.41;72.31
76201;BME280;64981;52.930;9.266;2023-12-14T10:00:34;101405.47;;;6.31;72.64
76201;BME280;64981;52.930;9.266;2023-12-14T10:03:20;101419.09;;;6.47;71.95
76201;BME280;64981;52.930;9.266;2023-12-14T10:05:47;101431.25;;;6.48;71.93
76201;BME280;64981;52.930;9.266;2023-12-14T10:08:14;101437.19;;;6.39;73.11
76201;BME280;64981;52.930;9.266;2023-12-14T10:10:40;101403.00;;;6.30;72.54
76201;BME280;64981;52.930;9.266;2023-12-14T10:13:06;101434.22;;;6.44;72.32
76201;BME280;64981;52.930;9.266;2023-12-14T10:15:41;101432.31;;;6.46;72.34
76201;BME280;64981;52.930;9.266;2023-12-14T10:18:07;101442.09;;;6.44;72.58
76201;BME280;64981;52.930;9.266;2023-12-14T10:20:32;101424.78;;;6.30;72.61
76201;BME280;64981;52.930;9.266;2023-12-14T10:22:58;101437.09;;;6.41;72.07
76201;BME280;64981;52.930;9.266;2023-12-14T10:25:27;101446.50;;;6.43;71.75
76201;BME280;64981;52.930;9.266;2023-12-14T10:27:56;101446.78;;;6.51;71.79
76201;BME280;64981;52.930;9.266;2023-12-14T10:30:22;101461.44;;;6.65;71.11
76201;BME280;64981;52.930;9.266;2023-12-14T10:32:48;101466.22;;;6.60;71.74
76201;BME280;64981;52.930;9.266;2023-12-14T10:35:14;101469.06;;;6.57;71.82
76201;BME280;64981;52.930;9.266;2023-12-14T10:37:42;101456.91;;;6.67;71.15
76201;BME280;64981;52.930;9.266;2023-12-14T10:40:09;101467.03;;;6.72;71.51
76201;BME280;64981;52.930;9.266;2023-12-14T10:42:36;101452.72;;;6.53;70.89
76201;BME280;64981;52.930;9.266;2023-12-14T10:45:04;101473.84;;;6.63;71.12
76201;BME280;64981;52.930;9.266;2023-12-14T10:47:32;101475.06;;;6.70;70.67
76201;BME280;64981;52.930;9.266;2023-12-14T10:50:00;101486.25;;;6.72;70.58
76201;BME280;64981;52.930;9.266;2023-12-14T10:52:27;101488.63;;;6.75;70.92
76201;BME280;64981;52.930;9.266;2023-12-14T10:55:00;101484.38;;;6.85;70.87
76201;BME280;64981;52.930;9.266;2023-12-14T10:57:28;101502.38;;;6.90;70.64
76201;BME280;64981;52.930;9.266;2023-12-14T10:59:58;101490.97;;;6.80;70.50
76201;BME280;64981;52.930;9.266;2023-12-14T11:02:24;101496.44;;;6.88;70.65
76201;BME280;64981;52.930;9.266;2023-12-14T11:04:55;101491.31;;;6.86;70.40
76201;BME280;64981;52.930;9.266;2023-12-14T11:07:44;101491.53;;;6.83;70.24
76201;BME280;64981;52.930;9.266;2023-12-14T11:10:11;101502.28;;;6.91;70.11
76201;BME280;64981;52.930;9.266;2023-12-14T11:12:37;101492.97;;;6.98;69.86
76201;BME280;64981;52.930;9.266;2023-12-14T11:15:05;101500.63;;;7.01;69.91
76201;BME280;64981;52.930;9.266;2023-12-14T11:17:31;101502.75;;;7.07;70.05
76201;BME280;64981;52.930;9.266;2023-12-14T11:20:27;101492.59;;;7.03;69.34
76201;BME280;64981;52.930;9.266;2023-12-14T11:22:55;101511.94;;;7.13;69.19
76201;BME280;64981;52.930;9.266;2023-12-14T11:25:23;101505.72;;;7.03;68.51
76201;BME280;64981;52.930;9.266;2023-12-14T11:27:49;101512.03;;;7.11;68.53
76201;BME280;64981;52.930;9.266;2023-12-14T11:30:15;101510.03;;;7.04;69.74
76201;BME280;64981;52.930;9.266;2023-12-14T11:32:42;101518.03;;;7.02;68.60
76201;BME280;64981;52.930;9.266;2023-12-14T11:35:07;101523.03;;;7.28;68.38
76201;BME280;64981;52.930;9.266;2023-12-14T11:37:36;101524.44;;;7.32;67.99
76201;BME280;64981;52.930;9.266;2023-12-14T11:40:02;101530.94;;;7.17;68.87
76201;BME280;64981;52.930;9.266;2023-12-14T11:42:30;101531.75;;;7.28;68.56
76201;BME280;64981;52.930;9.266;2023-12-14T11:44:57;101529.47;;;7.35;68.13
76201;BME280;64981;52.930;9.266;2023-12-14T11:47:23;101533.97;;;7.44;67.88
76201;BME280;64981;52.930;9.266;2023-12-14T11:49:48;101535.53;;;7.46;67.54
76201;BME280;64981;52.930;9.266;2023-12-14T11:52:14;101546.91;;;7.25;68.01
76201;BME280;64981;52.930;9.266;2023-12-14T11:54:39;101547.75;;;7.36;67.49
76201;BME280;64981;52.930;9.266;2023-12-14T11:57:05;101524.00;;;7.16;67.03
76201;BME280;64981;52.930;9.266;2023-12-14T11:59:34;101546.94;;;7.14;67.93
76201;BME280;64981;52.930;9.266;2023-12-14T12:02:01;101549.78;;;7.33;67.46
76201;BME280;64981;52.930;9.266;2023-12-14T12:04:28;101546.44;;;7.31;67.79
76201;BME280;64981;52.930;9.266;2023-12-14T12:07:03;101539.00;;;7.47;67.79
76201;BME280;64981;52.930;9.266;2023-12-14T12:09:41;101553.22;;;7.44;67.00
76201;BME280;64981;52.930;9.266;2023-12-14T12:12:09;101551.31;;;7.46;67.09
76201;BME280;64981;52.930;9.266;2023-12-14T12:14:35;101558.00;;;7.50;66.68
76201;BME280;64981;52.930;9.266;2023-12-14T12:17:01;101551.88;;;7.61;66.59
76201;BME280;64981;52.930;9.266;2023-12-14T12:19:27;101543.69;;;7.21;67.63
76201;BME280;64981;52.930;9.266;2023-12-14T12:21:52;101529.59;;;7.33;66.78
76201;BME280;64981;52.930;9.266;2023-12-14T12:24:18;101563.25;;;7.50;68.92
76201;BME280;64981;52.930;9.266;2023-12-14T12:26:44;101557.59;;;7.66;67.50
76201;BME280;64981;52.930;9.266;2023-12-14T12:29:09;101569.06;;;7.65;67.12
76201;BME280;64981;52.930;9.266;2023-12-14T12:31:35;101548.78;;;7.56;66.95
76201;BME280;64981;52.930;9.266;2023-12-14T12:34:02;101550.56;;;7.55;66.56
76201;BME280;64981;52.930;9.266;2023-12-14T12:36:27;101557.78;;;7.42;66.92
76201;BME280;64981;52.930;9.266;2023-12-14T12:38:53;101551.44;;;7.34;66.99
76201;BME280;64981;52.930;9.266;2023-12-14T12:41:19;101569.47;;;7.38;67.15
76201;BME280;64981;52.930;9.266;2023-12-14T12:43:44;101567.56;;;7.40;66.84
76201;BME280;64981;52.930;9.266;2023-12-14T12:46:10;101576.06;;;7.33;67.31
76201;BME280;64981;52.930;9.266;2023-12-14T12:48:36;101579.41;;;7.35;67.72
76201;BME280;64981;52.930;9.266;2023-12-14T12:51:02;101569.25;;;7.41;67.08
76201;BME280;64981;52.930;9.266;2023-12-14T12:53:27;101562.19;;;7.31;68.01
76201;BME280;64981;52.930;9.266;2023-12-14T12:55:53;101572.81;;;7.40;67.96